sensor_id;sensor_type;location;lat;lon;timestamp;temperature;humidity
23073;DHT22;67971;51.046;3.732;2023-07-20T00:01:36;18.90;99.90
23073;DHT22;67971;51.046;3.732;2023-07-20T00:04:01;19.00;99.90
23073;DHT22;67971;51.046;3.732;2023-07-20T00:06:27;19.10;99.90
23073;DHT22;67971;51.046;3.732;2023-07-20T00:08:56;19.20;99.90
23073;DHT22;67971;51.046;3.732;2023-07-20T00:11:26;19.10;99.90
23073;DHT22;67971;51.046;3.732;2023-07-20T00:13:52;19.10;99.90
23073;DHT22;67971;51.046;3.732;2023-07-20T00:16:17;19.20;99.90
23073;DHT22;67971;51.046;3.732;2023-07-20T00:18:43;19.20;99.90
23073;DHT22;67971;51.046;3.732;2023-07-20T00:21:09;19.10;99.90
23073;DHT22;67971;51.046;3.732;2023-07-20T00:23:35;19.10;99.90
23073;DHT22;67971;51.046;3.732;2023-07-20T00:26:00;19.10;99.90
23073;DHT22;67971;51.046;3.732;2023-07-20T00:28:26;19.00;99.90
23073;DHT22;67971;51.046;3.732;2023-07-20T00:30:52;19.00;99.90
23073;DHT22;67971;51.046;3.732;2023-07-20T00:33:18;19.00;99.90
23073;DHT22;67971;51.046;3.732;2023-07-20T00:35:44;19.00;99.90
23073;DHT22;67971;51.046;3.732;2023-07-20T00:38:10;19.00;99.90
23073;DHT22;67971;51.046;3.732;2023-07-20T00:40:37;19.00;99.90
23073;DHT22;67971;51.046;3.732;2023-07-20T00:43:02;19.00;99.90
23073;DHT22;67971;51.046;3.732;2023-07-20T00:45:29;19.00;99.90
23073;DHT22;67971;51.046;3.732;2023-07-20T00:47:55;19.10;99.90
23073;DHT22;67971;51.046;3.732;2023-07-20T00:50:22;19.00;99.90
23073;DHT22;67971;51.046;3.732;2023-07-20T00:52:48;19.00;99.90
23073;DHT22;67971;51.046;3.732;2023-07-20T00:55:15;19.00;99.90
23073;DHT22;67971;51.046;3.732;2023-07-20T00:57:41;19.00;99.90
23073;DHT22;67971;51.046;3.732;2023-07-20T01:00:07;19.00;99.90
23073;DHT22;67971;51.046;3.732;2023-07-20T01:02:33;18.70;99.90
23073;DHT22;67971;51.046;3.732;2023-07-20T01:04:58;18.50;99.90
23073;DHT22;67971;51.046;3.732;2023-07-20T01:07:32;18.50;99.90
23073;DHT22;67971;51.046;3.732;2023-07-20T01:10:22;18.40;99.90
23073;DHT22;67971;51.046;3.732;2023-07-20T01:12:54;18.30;99.90
23073;DHT22;67971;51.046;3.732;2023-07-20T01:15:20;18.40;99.90
23073;DHT22;67971;51.046;3.732;2023-07-20T01:17:46;18.50;99.90
23073;DHT22;67971;51.046;3.732;2023-07-20T01:20:16;18.60;99.90
23073;DHT22;67971;51.046;3.732;2023-07-20T01:23:08;18.70;99.90
23073;DHT22;67971;51.046;3.732;2023-07-20T01:28:38;18.70;99.90
23073;DHT22;67971;51.046;3.732;2023-07-20T01:31:25;18.60;99.90
23073;DHT22;67971;51.046;3.732;2023-07-20T01:33:58;18.40;99.90
23073;DHT22;67971;51.046;3.732;2023-07-20T01:36:26;18.50;99.90
23073;DHT22;67971;51.046;3.732;2023-07-20T01:38:52;18.60;99.90
23073;DHT22;67971;51.046;3.732;2023-07-20T01:41:18;18.60;99.90
23073;DHT22;67971;51.046;3.732;2023-07-20T01:43:44;18.70;99.90
23073;DHT22;67971;51.046;3.732;2023-07-20T01:46:10;18.60;99.90
23073;DHT22;67971;51.046;3.732;2023-07-20T01:48:36;18.50;99.90
23073;DHT22;67971;51.046;3.732;2023-07-20T01:51:01;18.60;99.90
23073;DHT22;67971;51.046;3.732;2023-07-20T01:53:27;18.50;99.90
23073;DHT22;67971;51.046;3.732;2023-07-20T01:55:53;18.60;99.90
23073;DHT22;67971;51.046;3.732;2023-07-20T01:58:22;18.70;99.90
23073;DHT22;67971;51.046;3.732;2023-07-20T02:00:47;18.80;99.90
23073;DHT22;67971;51.046;3.732;2023-07-20T02:03:13;18.80;99.90
23073;DHT22;67971;51.046;3.732;2023-07-20T02:05:39;18.80;99.90
23073;DHT22;67971;51.046;3.732;2023-07-20T02:08:04;18.70;99.90
23073;DHT22;67971;51.046;3.732;2023-07-20T02:10:30;18.70;99.90
23073;DHT22;67971;51.046;3.732;2023-07-20T02:12:56;18.60;99.90
23073;DHT22;67971;51.046;3.732;2023-07-20T02:15:22;18.80;99.90
23073;DHT22;67971;51.046;3.732;2023-07-20T02:17:48;18.80;99.90
23073;DHT22;67971;51.046;3.732;2023-07-20T02:20:13;18.80;99.90
23073;DHT22;67971;51.046;3.732;2023-07-20T02:22:39;18.90;99.90
23073;DHT22;67971;51.046;3.732;2023-07-20T02:25:05;18.90;99.90
23073;DHT22;67971;51.046;3.732;2023-07-20T02:27:33;18.90;99.90
23073;DHT22;67971;51.046;3.732;2023-07-20T02:29:58;18.70;99.90
23073;DHT22;67971;51.046;3.732;2023-07-20T02:32:24;18.60;99.90
23073;DHT22;67971;51.046;3.732;2023-07-20T02:34:50;18.60;99.90
23073;DHT22;67971;51.046;3.732;2023-07-20T02:37:16;18.50;99.90
23073;DHT22;67971;51.046;3.732;2023-07-20T02:39:42;18.30;99.90
23073;DHT22;67971;51.046;3.732;2023-07-20T02:42:08;18.50;99.90
23073;DHT22;67971;51.046;3.732;2023-07-20T02:44:33;18.70;99.90
23073;DHT22;67971;51.046;3.732;2023-07-20T02:46:59;18.80;99.90
23073;DHT22;67971;51.046;3.732;2023-07-20T02:49:25;18.70;99.90
23073;DHT22;67971;51.046;3.732;2023-07-20T02:51:50;18.70;99.90
23073;DHT22;67971;51.046;3.732;2023-07-20T02:54:16;18.90;99.90
23073;DHT22;67971;51.046;3.732;2023-07-20T02:56:42;19.00;99.90
23073;DHT22;67971;51.046;3.732;2023-07-20T02:59:08;18.90;99.90
23073;DHT22;67971;51.046;3.732;2023-07-20T03:01:34;18.90;99.90
23073;DHT22;67971;51.046;3.732;2023-07-20T03:03:59;18.90;99.90
23073;DHT22;67971;51.046;3.732;2023-07-20T03:06:25;18.80;99.90
23073;DHT22;67971;51.046;3.732;2023-07-20T03:08:51;18.90;99.90
23073;DHT22;67971;51.046;3.732;2023-07-20T03:11:19;18.80;99.90
23073;DHT22;67971;51.046;3.732;2023-07-20T03:13:46;18.40;99.90
23073;DHT22;67971;51.046;3.732;2023-07-20T03:16:13;18.60;99.90
23073;DHT22;67971;51.046;3.732;2023-07-20T03:18:41;18.70;99.90
23073;DHT22;67971;51.046;3.732;2023-07-20T03:21:07;18.90;99.90
23073;DHT22;67971;51.046;3.732;2023-07-20T03:23:33;18.90;99.90
23073;DHT22;67971;51.046;3.732;2023-07-20T03:25:59;18.80;99.90
23073;DHT22;67971;51.046;3.732;2023-07-20T03:28:25;18.70;99.90
23073;DHT22;67971;51.046;3.732;2023-07-20T03:30:55;18.60;99.90
23073;DHT22;67971;51.046;3.732;2023-07-20T03:33:27;18.60;99.90
23073;DHT22;67971;51.046;3.732;2023-07-20T03:35:53;18.60;99.90
23073;DHT22;67971;51.046;3.732;2023-07-20T03:38:19;18.50;99.90
23073;DHT22;67971;51.046;3.732;2023-07-20T03:43:19;18.30;99.90
23073;DHT22;67971;51.046;3.732;2023-07-20T03:45:45;18.30;99.90
23073;DHT22;67971;51.046;3.732;2023-07-20T03:48:17;18.50;99.90
23073;DHT22;67971;51.046;3.732;2023-07-20T03:50:44;18.60;99.90
23073;DHT22;67971;51.046;3.732;2023-07-20T03:53:11;18.60;99.90
23073;DHT22;67971;51.046;3.732;2023-07-20T03:55:37;18.60;99.90
23073;DHT22;67971;51.046;3.732;2023-07-20T03:58:02;18.60;99.90
23073;DHT22;67971;51.046;3.732;2023-07-20T04:00:28;18.70;99.90
23073;DHT22;67971;51.046;3.732;2023-07-20T04:02:54;18.80;99.90
23073;DHT22;67971;51.046;3.732;2023-07-20T04:05:20;18.80;99.90
23073;DHT22;67971;51.046;3.732;2023-07-20T04:07:45;18.80;99.90
23073;DHT22;67971;51.046;3.732;2023-07-20T04:10:11;18.70;99.90
23073;DHT22;67971;51.046;3.732;2023-07-20T04:12:37;18.80;99.90
23073;DHT22;67971;51.046;3.732;2023-07-20T04:15:02;18.80;99.90
23073;DHT22;67971;51.046;3.732;2023-07-20T04:17:29;18.70;99.90
23073;DHT22;67971;51.046;3.732;2023-07-20T04:19:54;18.70;99.90
23073;DHT22;67971;51.046;3.732;2023-07-20T04:22:20;18.80;99.90
23073;DHT22;67971;51.046;3.732;2023-07-20T04:24:46;18.90;99.90
23073;DHT22;67971;51.046;3.732;2023-07-20T04:27:12;19.00;99.90
23073;DHT22;67971;51.046;3.732;2023-07-20T04:29:37;19.20;99.90
23073;DHT22;67971;51.046;3.732;2023-07-20T04:32:03;19.20;99.90
23073;DHT22;67971;51.046;3.732;2023-07-20T04:34:29;19.30;99.90
23073;DHT22;67971;51.046;3.732;2023-07-20T04:36:55;19.30;99.90
23073;DHT22;67971;51.046;3.732;2023-07-20T04:39:20;19.40;99.90
23073;DHT22;67971;51.046;3.732;2023-07-20T04:41:46;19.40;99.90
23073;DHT22;67971;51.046;3.732;2023-07-20T04:44:13;19.60;99.90
23073;DHT22;67971;51.046;3.732;2023-07-20T04:46:39;19.60;99.90
23073;DHT22;67971;51.046;3.732;2023-07-20T04:49:05;19.70;99.90
23073;DHT22;67971;51.046;3.732;2023-07-20T04:51:31;19.70;99.90
23073;DHT22;67971;51.046;3.732;2023-07-20T04:53:57;19.70;99.90
23073;DHT22;67971;51.046;3.732;2023-07-20T04:56:23;19.80;99.90
23073;DHT22;67971;51.046;3.732;2023-07-20T04:58:49;19.80;99.90
23073;DHT22;67971;51.046;3.732;2023-07-20T05:01:14;19.70;99.90
23073;DHT22;67971;51.046;3.732;2023-07-20T05:03:40;19.80;99.90
23073;DHT22;67971;51.046;3.732;2023-07-20T05:06:06;19.80;99.90
23073;DHT22;67971;51.046;3.732;2023-07-20T05:08:31;19.90;99.90
23073;DHT22;67971;51.046;3.732;2023-07-20T05:10:57;20.10;99.90
23073;DHT22;67971;51.046;3.732;2023-07-20T05:13:23;20.10;99.90
23073;DHT22;67971;51.046;3.732;2023-07-20T05:15:51;20.20;99.90
23073;DHT22;67971;51.046;3.732;2023-07-20T05:18:18;20.30;99.90
23073;DHT22;67971;51.046;3.732;2023-07-20T05:20:49;20.40;99.90
23073;DHT22;67971;51.046;3.732;2023-07-20T05:23:16;20.50;99.90
23073;DHT22;67971;51.046;3.732;2023-07-20T05:25:42;20.40;99.90
23073;DHT22;67971;51.046;3.732;2023-07-20T05:28:08;20.50;99.90
23073;DHT22;67971;51.046;3.732;2023-07-20T05:30:33;20.60;99.90
23073;DHT22;67971;51.046;3.732;2023-07-20T05:32:59;20.60;99.90
23073;DHT22;67971;51.046;3.732;2023-07-20T05:35:26;20.60;99.90
23073;DHT22;67971;51.046;3.732;2023-07-20T05:37:51;20.80;99.90
23073;DHT22;67971;51.046;3.732;2023-07-20T05:40:17;20.70;99.90
23073;DHT22;67971;51.046;3.732;2023-07-20T05:42:47;20.70;99.90
23073;DHT22;67971;51.046;3.732;2023-07-20T05:45:14;20.80;99.90
23073;DHT22;67971;51.046;3.732;2023-07-20T05:47:41;20.90;99.90
23073;DHT22;67971;51.046;3.732;2023-07-20T05:50:07;21.10;99.90
23073;DHT22;67971;51.046;3.732;2023-07-20T05:52:32;21.20;99.90
23073;DHT22;67971;51.046;3.732;2023-07-20T05:54:58;21.40;99.90
23073;DHT22;67971;51.046;3.732;2023-07-20T05:57:24;21.50;99.90
23073;DHT22;67971;51.046;3.732;2023-07-20T05:59:49;21.50;99.90
23073;DHT22;67971;51.046;3.732;2023-07-20T06:02:16;21.60;99.90
23073;DHT22;67971;51.046;3.732;2023-07-20T06:04:42;21.70;99.90
23073;DHT22;67971;51.046;3.732;2023-07-20T06:07:07;21.70;99.90
23073;DHT22;67971;51.046;3.732;2023-07-20T06:09:33;21.80;99.90
23073;DHT22;67971;51.046;3.732;2023-07-20T06:11:59;21.90;99.90
23073;DHT22;67971;51.046;3.732;2023-07-20T06:14:25;21.90;99.90
23073;DHT22;67971;51.046;3.732;2023-07-20T06:16:50;22.00;99.90
23073;DHT22;67971;51.046;3.732;2023-07-20T06:19:16;22.20;99.90
23073;DHT22;67971;51.046;3.732;2023-07-20T06:21:42;22.10;99.90
23073;DHT22;67971;51.046;3.732;2023-07-20T06:24:08;22.10;99.90
23073;DHT22;67971;51.046;3.732;2023-07-20T06:26:34;22.30;99.90
23073;DHT22;67971;51.046;3.732;2023-07-20T06:29:05;22.30;99.90
23073;DHT22;67971;51.046;3.732;2023-07-20T06:31:32;22.40;99.90
23073;DHT22;67971;51.046;3.732;2023-07-20T06:33:57;22.50;99.90
23073;DHT22;67971;51.046;3.732;2023-07-20T06:36:23;22.40;99.90
23073;DHT22;67971;51.046;3.732;2023-07-20T06:38:48;22.50;99.90
23073;DHT22;67971;51.046;3.732;2023-07-20T06:41:14;22.60;99.90
23073;DHT22;67971;51.046;3.732;2023-07-20T06:43:40;22.70;99.90
23073;DHT22;67971;51.046;3.732;2023-07-20T06:46:05;22.80;99.90
23073;DHT22;67971;51.046;3.732;2023-07-20T06:48:31;22.90;99.90
23073;DHT22;67971;51.046;3.732;2023-07-20T06:50:56;23.00;99.90
23073;DHT22;67971;51.046;3.732;2023-07-20T06:53:22;23.10;99.90
23073;DHT22;67971;51.046;3.732;2023-07-20T06:55:48;23.30;99.90
23073;DHT22;67971;51.046;3.732;2023-07-20T06:58:14;23.30;99.90
23073;DHT22;67971;51.046;3.732;2023-07-20T07:00:39;23.50;99.90
23073;DHT22;67971;51.046;3.732;2023-07-20T07:03:05;23.60;99.90
23073;DHT22;67971;51.046;3.732;2023-07-20T07:05:30;23.60;99.90
23073;DHT22;67971;51.046;3.732;2023-07-20T07:07:56;23.70;99.90
23073;DHT22;67971;51.046;3.732;2023-07-20T07:10:22;23.80;99.90
23073;DHT22;67971;51.046;3.732;2023-07-20T07:12:47;23.40;99.90
23073;DHT22;67971;51.046;3.732;2023-07-20T07:15:13;23.40;99.90
23073;DHT22;67971;51.046;3.732;2023-07-20T07:17:38;23.70;99.90
23073;DHT22;67971;51.046;3.732;2023-07-20T07:20:05;24.00;99.90
23073;DHT22;67971;51.046;3.732;2023-07-20T07:22:31;24.30;99.90
23073;DHT22;67971;51.046;3.732;2023-07-20T07:24:57;24.20;99.90
23073;DHT22;67971;51.046;3.732;2023-07-20T07:27:22;24.50;99.90
23073;DHT22;67971;51.046;3.732;2023-07-20T07:29:48;24.70;99.90
23073;DHT22;67971;51.046;3.732;2023-07-20T07:32:15;24.80;99.90
23073;DHT22;67971;51.046;3.732;2023-07-20T07:34:40;24.80;99.90
23073;DHT22;67971;51.046;3.732;2023-07-20T07:37:06;24.80;99.90
23073;DHT22;67971;51.046;3.732;2023-07-20T07:39:32;24.90;99.90
23073;DHT22;67971;51.046;3.732;2023-07-20T07:41:57;24.70;99.90
23073;DHT22;67971;51.046;3.732;2023-07-20T07:44:23;24.60;99.90
23073;DHT22;67971;51.046;3.732;2023-07-20T07:46:50;24.90;99.90
23073;DHT22;67971;51.046;3.732;2023-07-20T07:49:16;25.30;99.90
23073;DHT22;67971;51.046;3.732;2023-07-20T07:51:42;25.70;99.90
23073;DHT22;67971;51.046;3.732;2023-07-20T07:54:08;26.10;99.90
23073;DHT22;67971;51.046;3.732;2023-07-20T07:56:33;26.10;99.90
23073;DHT22;67971;51.046;3.732;2023-07-20T07:58:59;25.80;99.90
23073;DHT22;67971;51.046;3.732;2023-07-20T08:01:24;26.00;99.90
23073;DHT22;67971;51.046;3.732;2023-07-20T08:03:50;26.20;99.90
23073;DHT22;67971;51.046;3.732;2023-07-20T08:06:16;26.30;99.90
23073;DHT22;67971;51.046;3.732;2023-07-20T08:08:42;26.40;99.90
23073;DHT22;67971;51.046;3.732;2023-07-20T08:11:08;26.70;99.90
23073;DHT22;67971;51.046;3.732;2023-07-20T08:13:33;26.50;99.90
23073;DHT22;67971;51.046;3.732;2023-07-20T08:15:59;26.30;99.90
23073;DHT22;67971;51.046;3.732;2023-07-20T08:18:25;26.50;99.90
23073;DHT22;67971;51.046;3.732;2023-07-20T08:20:50;26.60;99.90
23073;DHT22;67971;51.046;3.732;2023-07-20T08:23:16;26.60;99.90
23073;DHT22;67971;51.046;3.732;2023-07-20T08:25:42;26.50;99.90
23073;DHT22;67971;51.046;3.732;2023-07-20T08:28:16;26.00;99.90
23073;DHT22;67971;51.046;3.732;2023-07-20T08:30:43;25.80;99.90
23073;DHT22;67971;51.046;3.732;2023-07-20T08:33:10;25.70;99.90
23073;DHT22;67971;51.046;3.732;2023-07-20T08:35:37;25.40;99.90
23073;DHT22;67971;51.046;3.732;2023-07-20T08:38:02;25.60;99.90
23073;DHT22;67971;51.046;3.732;2023-07-20T08:40:31;25.90;99.90
23073;DHT22;67971;51.046;3.732;2023-07-20T08:42:58;26.40;99.90
23073;DHT22;67971;51.046;3.732;2023-07-20T08:45:27;26.90;99.90
23073;DHT22;67971;51.046;3.732;2023-07-20T08:47:56;27.30;99.90
23073;DHT22;67971;51.046;3.732;2023-07-20T08:50:25;27.20;99.90
23073;DHT22;67971;51.046;3.732;2023-07-20T08:52:52;27.10;99.90
23073;DHT22;67971;51.046;3.732;2023-07-20T08:55:22;27.30;99.90
23073;DHT22;67971;51.046;3.732;2023-07-20T08:57:50;27.10;99.90
23073;DHT22;67971;51.046;3.732;2023-07-20T09:00:17;26.90;99.90
23073;DHT22;67971;51.046;3.732;2023-07-20T09:02:45;26.70;99.90
23073;DHT22;67971;51.046;3.732;2023-07-20T09:05:11;26.60;99.90
23073;DHT22;67971;51.046;3.732;2023-07-20T09:07:39;26.60;99.90
23073;DHT22;67971;51.046;3.732;2023-07-20T09:10:06;26.70;99.90
23073;DHT22;67971;51.046;3.732;2023-07-20T09:12:35;26.80;99.90
23073;DHT22;67971;51.046;3.732;2023-07-20T09:15:01;26.50;99.90
23073;DHT22;67971;51.046;3.732;2023-07-20T09:17:27;26.20;99.90
23073;DHT22;67971;51.046;3.732;2023-07-20T09:19:52;26.30;99.90
23073;DHT22;67971;51.046;3.732;2023-07-20T09:22:18;27.40;99.90
23073;DHT22;67971;51.046;3.732;2023-07-20T09:24:44;28.30;99.90
23073;DHT22;67971;51.046;3.732;2023-07-20T09:27:11;29.40;99.90
23073;DHT22;67971;51.046;3.732;2023-07-20T09:29:49;30.00;99.90
23073;DHT22;67971;51.046;3.732;2023-07-20T09:32:18;30.10;99.90
23073;DHT22;67971;51.046;3.732;2023-07-20T09:34:49;30.70;99.90
23073;DHT22;67971;51.046;3.732;2023-07-20T09:37:23;30.00;99.90
23073;DHT22;67971;51.046;3.732;2023-07-20T09:39:51;29.50;99.90
23073;DHT22;67971;51.046;3.732;2023-07-20T09:42:18;29.10;99.90
23073;DHT22;67971;51.046;3.732;2023-07-20T09:44:44;29.10;99.90
23073;DHT22;67971;51.046;3.732;2023-07-20T09:47:10;28.70;99.90
23073;DHT22;67971;51.046;3.732;2023-07-20T09:49:40;28.50;99.90
23073;DHT22;67971;51.046;3.732;2023-07-20T09:52:08;28.20;99.90
23073;DHT22;67971;51.046;3.732;2023-07-20T09:54:34;28.00;99.90
23073;DHT22;67971;51.046;3.732;2023-07-20T09:57:02;27.80;99.90
23073;DHT22;67971;51.046;3.732;2023-07-20T09:59:28;27.50;99.90
23073;DHT22;67971;51.046;3.732;2023-07-20T10:01:57;27.20;99.90
23073;DHT22;67971;51.046;3.732;2023-07-20T10:04:25;26.90;99.90
23073;DHT22;67971;51.046;3.732;2023-07-20T10:06:52;26.70;99.90
23073;DHT22;67971;51.046;3.732;2023-07-20T10:09:20;26.80;99.90
23073;DHT22;67971;51.046;3.732;2023-07-20T10:11:50;27.00;99.90
23073;DHT22;67971;51.046;3.732;2023-07-20T10:14:28;27.50;99.90
23073;DHT22;67971;51.046;3.732;2023-07-20T10:16:58;27.90;99.90
23073;DHT22;67971;51.046;3.732;2023-07-20T10:19:49;29.20;99.90
23073;DHT22;67971;51.046;3.732;2023-07-20T10:22:20;32.20;97.40
23073;DHT22;67971;51.046;3.732;2023-07-20T10:24:50;33.00;96.30
23073;DHT22;67971;51.046;3.732;2023-07-20T10:27:20;33.20;95.00
23073;DHT22;67971;51.046;3.732;2023-07-20T10:29:47;31.80;95.30
23073;DHT22;67971;51.046;3.732;2023-07-20T10:32:12;31.00;95.40
23073;DHT22;67971;51.046;3.732;2023-07-20T10:34:39;31.20;95.10
23073;DHT22;67971;51.046;3.732;2023-07-20T10:37:05;31.20;95.80
23073;DHT22;67971;51.046;3.732;2023-07-20T10:39:34;32.30;94.80
23073;DHT22;67971;51.046;3.732;2023-07-20T10:42:09;33.40;94.50
23073;DHT22;67971;51.046;3.732;2023-07-20T10:44:39;33.50;93.00
23073;DHT22;67971;51.046;3.732;2023-07-20T10:47:09;33.20;92.80
23073;DHT22;67971;51.046;3.732;2023-07-20T10:49:38;32.40;93.10
23073;DHT22;67971;51.046;3.732;2023-07-20T10:52:21;31.40;93.40
23073;DHT22;67971;51.046;3.732;2023-07-20T10:54:47;30.50;93.60
23073;DHT22;67971;51.046;3.732;2023-07-20T10:57:29;29.80;94.00
23073;DHT22;67971;51.046;3.732;2023-07-20T11:00:11;29.50;94.00
23073;DHT22;67971;51.046;3.732;2023-07-20T11:02:45;28.80;94.50
23073;DHT22;67971;51.046;3.732;2023-07-20T11:05:36;28.80;94.30
23073;DHT22;67971;51.046;3.732;2023-07-20T11:08:12;28.60;94.90
23073;DHT22;67971;51.046;3.732;2023-07-20T11:10:38;28.30;94.50
23073;DHT22;67971;51.046;3.732;2023-07-20T11:13:22;28.10;95.20
23073;DHT22;67971;51.046;3.732;2023-07-20T11:16:08;28.40;95.70
23073;DHT22;67971;51.046;3.732;2023-07-20T11:18:34;28.60;94.30
23073;DHT22;67971;51.046;3.732;2023-07-20T11:21:07;28.70;93.80
23073;DHT22;67971;51.046;3.732;2023-07-20T11:23:33;28.90;94.10
23073;DHT22;67971;51.046;3.732;2023-07-20T11:25:59;28.70;93.70
23073;DHT22;67971;51.046;3.732;2023-07-20T11:28:25;28.40;94.20
23073;DHT22;67971;51.046;3.732;2023-07-20T11:30:55;28.10;94.80
23073;DHT22;67971;51.046;3.732;2023-07-20T11:33:20;27.70;95.90
23073;DHT22;67971;51.046;3.732;2023-07-20T11:35:46;27.20;96.10
23073;DHT22;67971;51.046;3.732;2023-07-20T11:38:13;26.70;96.40
23073;DHT22;67971;51.046;3.732;2023-07-20T11:40:47;26.70;97.10
23073;DHT22;67971;51.046;3.732;2023-07-20T11:43:14;26.90;97.50
23073;DHT22;67971;51.046;3.732;2023-07-20T11:45:40;27.20;96.80
23073;DHT22;67971;51.046;3.732;2023-07-20T11:48:05;27.30;96.90
23073;DHT22;67971;51.046;3.732;2023-07-20T11:50:31;27.30;97.00
23073;DHT22;67971;51.046;3.732;2023-07-20T11:52:57;27.10;97.40
23073;DHT22;67971;51.046;3.732;2023-07-20T11:55:23;27.10;96.80
23073;DHT22;67971;51.046;3.732;2023-07-20T11:58:08;26.70;97.10
23073;DHT22;67971;51.046;3.732;2023-07-20T12:00:36;26.40;97.60
23073;DHT22;67971;51.046;3.732;2023-07-20T12:03:05;26.20;98.00
23073;DHT22;67971;51.046;3.732;2023-07-20T12:05:32;26.30;98.30
23073;DHT22;67971;51.046;3.732;2023-07-20T12:07:58;26.20;98.10
23073;DHT22;67971;51.046;3.732;2023-07-20T12:10:25;26.00;98.50
23073;DHT22;67971;51.046;3.732;2023-07-20T12:12:52;25.80;98.60
23073;DHT22;67971;51.046;3.732;2023-07-20T12:15:24;25.70;98.80
23073;DHT22;67971;51.046;3.732;2023-07-20T12:17:56;25.60;99.20
23073;DHT22;67971;51.046;3.732;2023-07-20T12:20:32;25.70;99.50
23073;DHT22;67971;51.046;3.732;2023-07-20T12:23:10;25.80;99.20
23073;DHT22;67971;51.046;3.732;2023-07-20T12:25:39;26.20;99.20
23073;DHT22;67971;51.046;3.732;2023-07-20T12:28:28;26.80;98.90
23073;DHT22;67971;51.046;3.732;2023-07-20T12:30:53;26.80;98.50
23073;DHT22;67971;51.046;3.732;2023-07-20T12:33:22;26.90;98.70
23073;DHT22;67971;51.046;3.732;2023-07-20T12:35:48;26.90;98.80
23073;DHT22;67971;51.046;3.732;2023-07-20T12:38:15;27.30;98.60
23073;DHT22;67971;51.046;3.732;2023-07-20T12:40:41;27.80;99.00
23073;DHT22;67971;51.046;3.732;2023-07-20T12:43:07;27.60;99.20
23073;DHT22;67971;51.046;3.732;2023-07-20T12:45:33;27.40;99.90
23073;DHT22;67971;51.046;3.732;2023-07-20T12:47:59;27.50;99.90
23073;DHT22;67971;51.046;3.732;2023-07-20T12:50:24;28.50;99.10
23073;DHT22;67971;51.046;3.732;2023-07-20T12:52:50;29.00;97.90
23073;DHT22;67971;51.046;3.732;2023-07-20T12:55:16;28.90;97.90
23073;DHT22;67971;51.046;3.732;2023-07-20T12:57:41;28.70;98.30
23073;DHT22;67971;51.046;3.732;2023-07-20T13:00:10;29.80;97.80
23073;DHT22;67971;51.046;3.732;2023-07-20T13:02:36;32.00;96.40
23073;DHT22;67971;51.046;3.732;2023-07-20T13:05:02;33.50;94.20
23073;DHT22;67971;51.046;3.732;2023-07-20T13:07:33;32.50;93.10
23073;DHT22;67971;51.046;3.732;2023-07-20T13:10:00;31.40;93.40
23073;DHT22;67971;51.046;3.732;2023-07-20T13:12:31;30.60;93.80
23073;DHT22;67971;51.046;3.732;2023-07-20T13:14:57;29.60;94.50
23073;DHT22;67971;51.046;3.732;2023-07-20T13:17:26;28.50;96.30
23073;DHT22;67971;51.046;3.732;2023-07-20T13:19:52;28.20;96.80
23073;DHT22;67971;51.046;3.732;2023-07-20T13:22:17;28.40;97.00
23073;DHT22;67971;51.046;3.732;2023-07-20T13:24:45;28.60;96.90
23073;DHT22;67971;51.046;3.732;2023-07-20T13:27:17;28.40;96.60
23073;DHT22;67971;51.046;3.732;2023-07-20T13:29:43;28.00;97.10
23073;DHT22;67971;51.046;3.732;2023-07-20T13:32:09;27.90;97.40
23073;DHT22;67971;51.046;3.732;2023-07-20T13:34:35;27.70;97.50
23073;DHT22;67971;51.046;3.732;2023-07-20T13:37:01;27.50;97.60
23073;DHT22;67971;51.046;3.732;2023-07-20T13:39:27;27.20;97.90
23073;DHT22;67971;51.046;3.732;2023-07-20T13:41:53;26.70;98.00
23073;DHT22;67971;51.046;3.732;2023-07-20T13:44:20;26.10;98.90
23073;DHT22;67971;51.046;3.732;2023-07-20T13:46:47;25.80;99.50
23073;DHT22;67971;51.046;3.732;2023-07-20T13:49:12;25.80;99.60
23073;DHT22;67971;51.046;3.732;2023-07-20T13:51:38;25.90;99.40
23073;DHT22;67971;51.046;3.732;2023-07-20T13:54:04;26.00;99.70
23073;DHT22;67971;51.046;3.732;2023-07-20T13:56:29;26.10;99.70
23073;DHT22;67971;51.046;3.732;2023-07-20T13:58:55;25.90;99.90
23073;DHT22;67971;51.046;3.732;2023-07-20T14:01:20;25.30;99.90
23073;DHT22;67971;51.046;3.732;2023-07-20T14:03:48;25.20;99.90
23073;DHT22;67971;51.046;3.732;2023-07-20T14:06:14;25.10;99.90
23073;DHT22;67971;51.046;3.732;2023-07-20T14:08:40;24.90;99.90
23073;DHT22;67971;51.046;3.732;2023-07-20T14:11:06;24.70;99.90
23073;DHT22;67971;51.046;3.732;2023-07-20T14:13:32;24.50;99.90
23073;DHT22;67971;51.046;3.732;2023-07-20T14:15:57;24.10;99.90
23073;DHT22;67971;51.046;3.732;2023-07-20T14:18:23;23.90;99.90
23073;DHT22;67971;51.046;3.732;2023-07-20T14:20:49;23.70;99.90
23073;DHT22;67971;51.046;3.732;2023-07-20T14:23:14;23.40;99.90
23073;DHT22;67971;51.046;3.732;2023-07-20T14:25:40;23.20;99.90
23073;DHT22;67971;51.046;3.732;2023-07-20T14:28:07;23.30;99.90
23073;DHT22;67971;51.046;3.732;2023-07-20T14:30:33;23.20;99.90
23073;DHT22;67971;51.046;3.732;2023-07-20T14:32:58;22.90;99.90
23073;DHT22;67971;51.046;3.732;2023-07-20T14:35:24;22.90;99.90
23073;DHT22;67971;51.046;3.732;2023-07-20T14:37:49;23.10;99.90
23073;DHT22;67971;51.046;3.732;2023-07-20T14:40:15;23.20;99.90
23073;DHT22;67971;51.046;3.732;2023-07-20T14:42:41;23.10;99.90
23073;DHT22;67971;51.046;3.732;2023-07-20T14:45:07;23.20;99.90
23073;DHT22;67971;51.046;3.732;2023-07-20T14:47:33;23.40;99.90
23073;DHT22;67971;51.046;3.732;2023-07-20T14:50:01;23.50;99.90
23073;DHT22;67971;51.046;3.732;2023-07-20T14:52:28;23.50;99.90
23073;DHT22;67971;51.046;3.732;2023-07-20T14:54:54;23.60;99.90
23073;DHT22;67971;51.046;3.732;2023-07-20T14:57:20;23.70;99.90
23073;DHT22;67971;51.046;3.732;2023-07-20T14:59:48;23.70;99.90
23073;DHT22;67971;51.046;3.732;2023-07-20T15:02:14;23.60;99.90
23073;DHT22;67971;51.046;3.732;2023-07-20T15:04:49;23.50;99.90
23073;DHT22;67971;51.046;3.732;2023-07-20T15:07:20;23.40;99.90
23073;DHT22;67971;51.046;3.732;2023-07-20T15:09:47;23.30;99.90
23073;DHT22;67971;51.046;3.732;2023-07-20T15:12:13;23.20;99.90
23073;DHT22;67971;51.046;3.732;2023-07-20T15:14:41;23.00;99.90
23073;DHT22;67971;51.046;3.732;2023-07-20T15:17:08;22.80;99.90
23073;DHT22;67971;51.046;3.732;2023-07-20T15:19:34;22.60;99.90
23073;DHT22;67971;51.046;3.732;2023-07-20T15:22:02;22.50;99.90
23073;DHT22;67971;51.046;3.732;2023-07-20T15:24:32;22.40;99.90
23073;DHT22;67971;51.046;3.732;2023-07-20T15:26:57;22.40;99.90
23073;DHT22;67971;51.046;3.732;2023-07-20T15:29:24;22.10;99.90
23073;DHT22;67971;51.046;3.732;2023-07-20T15:31:50;22.00;99.90
23073;DHT22;67971;51.046;3.732;2023-07-20T15:34:15;21.90;99.90
23073;DHT22;67971;51.046;3.732;2023-07-20T15:36:41;22.10;99.90